sensor_id;sensor_type;location;lat;lon;timestamp;temperature;humidity
6186;DHT22;3126;52.738;8.316;2024-01-25T05:03:16;7.00;99.90
6186;DHT22;3126;52.738;8.316;2024-01-25T05:33:24;5.80;99.90
6186;DHT22;3126;52.738;8.316;2024-01-25T05:43:26;5.50;99.90
6186;DHT22;3126;52.738;8.316;2024-01-25T05:48:26;5.40;99.90
6186;DHT22;3126;52.738;8.316;2024-01-25T05:53:27;5.30;99.90
6186;DHT22;3126;52.738;8.316;2024-01-25T05:58:27;5.20;99.90
6186;DHT22;3126;52.738;8.316;2024-01-25T06:38:36;5.20;99.90
6186;DHT22;3126;52.738;8.316;2024-01-25T06:53:41;4.90;99.90
6186;DHT22;3126;52.738;8.316;2024-01-25T06:58:41;4.80;99.90
6186;DHT22;3126;52.738;8.316;2024-01-25T07:03:42;4.80;99.90
6186;DHT22;3126;52.738;8.316;2024-01-25T07:08:43;4.80;99.90
6186;DHT22;3126;52.738;8.316;2024-01-25T07:13:43;4.80;99.90
6186;DHT22;3126;52.738;8.316;2024-01-25T07:18:44;4.70;99.90
6186;DHT22;3126;52.738;8.316;2024-01-25T07:23:44;4.60;99.90
6186;DHT22;3126;52.738;8.316;2024-01-25T07:28:45;4.60;99.90
6186;DHT22;3126;52.738;8.316;2024-01-25T07:33:46;4.60;99.90
6186;DHT22;3126;52.738;8.316;2024-01-25T07:38:47;4.50;99.90
6186;DHT22;3126;52.738;8.316;2024-01-25T07:43:48;4.60;99.90
6186;DHT22;3126;52.738;8.316;2024-01-25T07:48:49;4.60;99.90
6186;DHT22;3126;52.738;8.316;2024-01-25T07:53:50;4.60;99.90
6186;DHT22;3126;52.738;8.316;2024-01-25T07:58:50;4.60;99.90
6186;DHT22;3126;52.738;8.316;2024-01-25T08:03:51;4.60;99.90
6186;DHT22;3126;52.738;8.316;2024-01-25T08:08:52;4.60;99.90
6186;DHT22;3126;52.738;8.316;2024-01-25T08:13:52;4.60;99.90
6186;DHT22;3126;52.738;8.316;2024-01-25T08:18:53;4.70;99.90
6186;DHT22;3126;52.738;8.316;2024-01-25T08:23:54;4.70;99.90
6186;DHT22;3126;52.738;8.316;2024-01-25T08:28:54;4.80;99.90
6186;DHT22;3126;52.738;8.316;2024-01-25T08:33:55;4.80;99.90
6186;DHT22;3126;52.738;8.316;2024-01-25T08:38:55;4.90;99.90
6186;DHT22;3126;52.738;8.316;2024-01-25T08:43:56;5.10;99.90
6186;DHT22;3126;52.738;8.316;2024-01-25T08:48:57;5.10;99.90
6186;DHT22;3126;52.738;8.316;2024-01-25T08:53:57;5.20;99.90
6186;DHT22;3126;52.738;8.316;2024-01-25T08:58:58;5.30;99.90
6186;DHT22;3126;52.738;8.316;2024-01-25T09:03:58;5.30;99.90
6186;DHT22;3126;52.738;8.316;2024-01-25T09:09:02;5.30;99.90
6186;DHT22;3126;52.738;8.316;2024-01-25T09:14:04;5.40;99.90
6186;DHT22;3126;52.738;8.316;2024-01-25T09:19:04;5.50;99.90
6186;DHT22;3126;52.738;8.316;2024-01-25T09:24:05;5.50;99.90
6186;DHT22;3126;52.738;8.316;2024-01-25T09:29:06;5.60;99.90
6186;DHT22;3126;52.738;8.316;2024-01-25T09:39:08;5.70;99.90
6186;DHT22;3126;52.738;8.316;2024-01-25T09:44:09;5.90;99.90
6186;DHT22;3126;52.738;8.316;2024-01-25T09:49:10;5.90;99.90
6186;DHT22;3126;52.738;8.316;2024-01-25T09:54:11;5.90;99.90
6186;DHT22;3126;52.738;8.316;2024-01-25T09:59:11;5.90;99.90
6186;DHT22;3126;52.738;8.316;2024-01-25T10:04:12;6.00;99.90
6186;DHT22;3126;52.738;8.316;2024-01-25T10:09:12;6.00;99.90
6186;DHT22;3126;52.738;8.316;2024-01-25T10:14:14;6.00;99.90
6186;DHT22;3126;52.738;8.316;2024-01-25T10:19:15;6.10;99.90
6186;DHT22;3126;52.738;8.316;2024-01-25T10:24:15;6.20;99.90
6186;DHT22;3126;52.738;8.316;2024-01-25T10:29:16;6.20;99.90
6186;DHT22;3126;52.738;8.316;2024-01-25T10:34:17;6.20;99.90
6186;DHT22;3126;52.738;8.316;2024-01-25T10:39:19;6.20;99.90
6186;DHT22;3126;52.738;8.316;2024-01-25T10:44:21;6.20;99.90
6186;DHT22;3126;52.738;8.316;2024-01-25T10:49:21;6.40;99.90
6186;DHT22;3126;52.738;8.316;2024-01-25T16:41:10;6.60;99.90
6186;DHT22;3126;52.738;8.316;2024-01-25T16:46:10;5.90;99.90
6186;DHT22;3126;52.738;8.316;2024-01-25T16:51:11;5.90;99.90
6186;DHT22;3126;52.738;8.316;2024-01-25T16:56:11;5.80;99.90
6186;DHT22;3126;52.738;8.316;2024-01-25T17:01:12;5.80;99.90
6186;DHT22;3126;52.738;8.316;2024-01-25T17:06:12;5.60;99.90
6186;DHT22;3126;52.738;8.316;2024-01-25T17:11:13;5.50;99.90
6186;DHT22;3126;52.738;8.316;2024-01-25T17:16:13;5.50;99.90
6186;DHT22;3126;52.738;8.316;2024-01-25T17:21:14;5.40;99.90
6186;DHT22;3126;52.738;8.316;2024-01-25T17:26:15;5.30;99.90
6186;DHT22;3126;52.738;8.316;2024-01-25T17:31:16;5.30;99.90
6186;DHT22;3126;52.738;8.316;2024-01-25T17:36:19;5.30;99.90
6186;DHT22;3126;52.738;8.316;2024-01-25T17:41:20;5.20;99.90
6186;DHT22;3126;52.738;8.316;2024-01-25T17:46:20;5.20;99.90
6186;DHT22;3126;52.738;8.316;2024-01-25T17:51:21;5.10;99.90
6186;DHT22;3126;52.738;8.316;2024-01-25T17:56:21;5.10;99.90
6186;DHT22;3126;52.738;8.316;2024-01-25T18:01:22;5.00;99.90
6186;DHT22;3126;52.738;8.316;2024-01-25T18:06:22;5.00;99.90
6186;DHT22;3126;52.738;8.316;2024-01-25T18:21:25;5.50;99.90
6186;DHT22;3126;52.738;8.316;2024-01-25T18:26:26;4.80;99.90
6186;DHT22;3126;52.738;8.316;2024-01-25T18:31:26;4.70;99.90
6186;DHT22;3126;52.738;8.316;2024-01-25T18:36:27;4.70;99.90
6186;DHT22;3126;52.738;8.316;2024-01-25T18:41:28;4.70;99.90
6186;DHT22;3126;52.738;8.316;2024-01-25T18:46:28;4.60;99.90
6186;DHT22;3126;52.738;8.316;2024-01-25T18:51:29;4.60;99.90
6186;DHT22;3126;52.738;8.316;2024-01-25T18:56:30;4.60;99.90
6186;DHT22;3126;52.738;8.316;2024-01-25T19:01:31;4.70;99.90
6186;DHT22;3126;52.738;8.316;2024-01-25T19:06:33;4.70;99.90
6186;DHT22;3126;52.738;8.316;2024-01-25T19:11:34;4.80;99.90
6186;DHT22;3126;52.738;8.316;2024-01-25T19:16:35;4.90;99.90
6186;DHT22;3126;52.738;8.316;2024-01-25T19:21:35;5.00;99.90
6186;DHT22;3126;52.738;8.316;2024-01-25T19:26:36;5.00;99.90
6186;DHT22;3126;52.738;8.316;2024-01-25T19:31:37;5.10;99.90
6186;DHT22;3126;52.738;8.316;2024-01-25T19:36:38;5.10;99.90
6186;DHT22;3126;52.738;8.316;2024-01-25T19:41:38;5.10;99.90
6186;DHT22;3126;52.738;8.316;2024-01-25T19:46:39;5.20;99.90
6186;DHT22;3126;52.738;8.316;2024-01-25T19:51:39;5.20;99.90
6186;DHT22;3126;52.738;8.316;2024-01-25T19:56:40;5.30;99.90
6186;DHT22;3126;52.738;8.316;2024-01-25T20:01:41;5.30;99.90
6186;DHT22;3126;52.738;8.316;2024-01-25T20:06:42;5.40;99.90
6186;DHT22;3126;52.738;8.316;2024-01-25T20:11:43;5.40;99.90
6186;DHT22;3126;52.738;8.316;2024-01-25T20:16:43;5.40;99.90
6186;DHT22;3126;52.738;8.316;2024-01-25T20:21:44;5.50;99.90
6186;DHT22;3126;52.738;8.316;2024-01-25T20:26:45;5.50;99.90
6186;DHT22;3126;52.738;8.316;2024-01-25T20:31:45;5.50;99.90
6186;DHT22;3126;52.738;8.316;2024-01-25T20:36:46;5.60;99.90
6186;DHT22;3126;52.738;8.316;2024-01-25T20:41:46;5.60;99.90
6186;DHT22;3126;52.738;8.316;2024-01-25T20:46:48;5.60;99.90
6186;DHT22;3126;52.738;8.316;2024-01-25T20:51:50;5.70;99.90
6186;DHT22;3126;52.738;8.316;2024-01-25T20:56:51;5.70;99.90
6186;DHT22;3126;52.738;8.316;2024-01-25T21:01:51;5.80;99.90
6186;DHT22;3126;52.738;8.316;2024-01-25T21:06:52;5.80;99.90
6186;DHT22;3126;52.738;8.316;2024-01-25T21:11:53;5.90;99.90
6186;DHT22;3126;52.738;8.316;2024-01-25T21:16:54;5.90;99.90
6186;DHT22;3126;52.738;8.316;2024-01-25T21:21:55;5.90;99.90
6186;DHT22;3126;52.738;8.316;2024-01-25T21:26:56;5.90;99.90
6186;DHT22;3126;52.738;8.316;2024-01-25T21:31:56;5.90;99.90
6186;DHT22;3126;52.738;8.316;2024-01-25T21:36:57;6.00;99.90
6186;DHT22;3126;52.738;8.316;2024-01-25T21:41:57;6.00;99.90
6186;DHT22;3126;52.738;8.316;2024-01-25T21:46:58;6.00;99.90
6186;DHT22;3126;52.738;8.316;2024-01-25T21:51:58;6.00;99.90
6186;DHT22;3126;52.738;8.316;2024-01-25T21:57:01;6.00;99.90
6186;DHT22;3126;52.738;8.316;2024-01-25T22:02:02;6.00;99.90
6186;DHT22;3126;52.738;8.316;2024-01-25T22:07:02;6.00;99.90
6186;DHT22;3126;52.738;8.316;2024-01-25T22:12:03;6.10;99.90
6186;DHT22;3126;52.738;8.316;2024-01-25T22:17:04;6.10;99.90
6186;DHT22;3126;52.738;8.316;2024-01-25T22:22:05;6.10;99.90
6186;DHT22;3126;52.738;8.316;2024-01-25T22:27:06;6.20;99.90
6186;DHT22;3126;52.738;8.316;2024-01-25T22:32:09;6.30;99.90
6186;DHT22;3126;52.738;8.316;2024-01-25T22:37:09;6.30;99.90
6186;DHT22;3126;52.738;8.316;2024-01-25T22:42:10;6.30;99.90
6186;DHT22;3126;52.738;8.316;2024-01-25T22:47:10;6.40;99.90
6186;DHT22;3126;52.738;8.316;2024-01-25T22:52:11;6.40;99.90
6186;DHT22;3126;52.738;8.316;2024-01-25T22:57:12;6.50;99.90
6186;DHT22;3126;52.738;8.316;2024-01-25T23:02:12;6.60;99.90
6186;DHT22;3126;52.738;8.316;2024-01-25T23:07:13;6.60;99.90
6186;DHT22;3126;52.738;8.316;2024-01-25T23:12:13;6.70;99.90
6186;DHT22;3126;52.738;8.316;2024-01-25T23:17:14;6.70;99.90
6186;DHT22;3126;52.738;8.316;2024-01-25T23:22:14;6.70;99.90
6186;DHT22;3126;52.738;8.316;2024-01-25T23:32:16;7.20;99.90
